Time;durP1;ratioP1;P1;durP2;ratioP2;P2;SDS_P1;SDS_P2;PMS_P1;PMS_P2;Temp;Humidity;BMP_temperature;BMP_pressure;BME280_temperature;BME280_humidity;BME280_pressure;Samples;Min_cycle;Max_cycle;Signal;HPM_P1;HPM_P2
2022/04/06 00:01:22;;;;;;;16.88;7.93;;;8.40;99.90;;;;;;5014456;28;20172;-72
2022/04/06 00:03:48;;;;;;;17.33;8.98;;;8.40;99.90;;;;;;5013550;28;20584;-72
2022/04/06 00:06:13;;;;;;;13.32;8.20;;;8.50;99.90;;;;;;5006350;28;20113;-72
2022/04/06 00:08:39;;;;;;;16.58;8.57;;;8.50;99.90;;;;;;5010441;28;20021;-72
2022/04/06 00:11:05;;;;;;;16.88;7.55;;;8.50;99.90;;;;;;5010131;28;20108;-72
2022/04/06 00:13:31;;;;;;;13.00;7.53;;;8.50;99.90;;;;;;5008311;28;20118;-72
2022/04/06 00:15:56;;;;;;;19.90;8.20;;;8.60;99.90;;;;;;5002489;28;20477;-72
2022/04/06 00:18:22;;;;;;;14.90;8.15;;;8.60;99.90;;;;;;5006838;28;20037;-72
2022/04/06 00:20:48;;;;;;;14.38;7.70;;;8.50;99.90;;;;;;5015269;28;20087;-72
2022/04/06 00:23:15;;;;;;;13.77;7.68;;;8.60;99.90;;;;;;5005906;28;20116;-73
2022/04/06 00:25:40;;;;;;;16.00;7.65;;;8.60;99.90;;;;;;5010905;28;20029;-72
2022/04/06 00:28:06;;;;;;;14.88;7.93;;;8.60;99.90;;;;;;5016268;28;20026;-72
2022/04/06 00:30:32;;;;;;;15.27;7.63;;;8.60;99.90;;;;;;5007244;28;20022;-71
2022/04/06 00:32:58;;;;;;;13.75;7.40;;;8.60;99.90;;;;;;5006681;28;20615;-72
2022/04/06 00:35:29;;;;;;;15.95;7.03;;;8.60;99.90;;;;;;5008599;28;20030;-71
2022/04/06 00:37:56;;;;;;;12.73;7.03;;;8.60;99.90;;;;;;5004703;28;20140;-71
2022/04/06 00:40:22;;;;;;;14.43;6.88;;;8.70;99.90;;;;;;5017406;28;20029;-72
2022/04/06 00:42:48;;;;;;;13.57;7.55;;;8.70;99.90;;;;;;5011243;28;20100;-72
2022/04/06 00:45:15;;;;;;;15.25;7.30;;;8.70;99.90;;;;;;5000389;28;20041;-73
2022/04/06 00:47:41;;;;;;;13.75;7.35;;;8.60;99.90;;;;;;5001408;28;20484;-73
2022/04/06 00:50:07;;;;;;;15.73;7.28;;;8.70;99.90;;;;;;5014365;28;20096;-72
2022/04/06 00:52:33;;;;;;;14.50;7.00;;;8.70;99.90;;;;;;5010118;28;20480;-72
2022/04/06 00:55:00;;;;;;;15.77;7.10;;;8.60;99.90;;;;;;5008115;28;20033;-72
2022/04/06 00:57:26;;;;;;;13.18;7.15;;;8.70;99.90;;;;;;5007906;28;20129;-72
2022/04/06 00:59:53;;;;;;;13.90;7.60;;;8.70;99.90;;;;;;5007284;28;20120;-72
2022/04/06 01:02:18;;;;;;;16.70;7.78;;;8.70;99.90;;;;;;5009990;28;20036;-72
2022/04/06 01:04:44;;;;;;;14.50;7.60;;;8.70;99.90;;;;;;5005814;28;20552;-72
2022/04/06 01:07:12;;;;;;;15.38;7.63;;;8.70;99.90;;;;;;5007854;28;20113;-72
2022/04/06 01:09:38;;;;;;;13.45;6.63;;;8.70;99.90;;;;;;5008290;28;20443;-72
2022/04/06 01:12:04;;;;;;;14.45;7.35;;;8.70;99.90;;;;;;5006995;28;20080;-72
2022/04/06 01:14:30;;;;;;;13.93;7.72;;;8.70;99.90;;;;;;5017192;28;20029;-72
2022/04/06 01:17:00;;;;;;;14.82;7.65;;;8.70;99.90;;;;;;5005950;28;20487;-72
2022/04/06 01:19:33;;;;;;;14.60;7.50;;;8.70;99.90;;;;;;5005245;28;20080;-72
2022/04/06 01:22:00;;;;;;;13.43;7.00;;;8.80;99.90;;;;;;5012389;28;20057;-73
2022/04/06 01:24:26;;;;;;;13.82;7.32;;;8.70;99.90;;;;;;5011000;28;20044;-72
2022/04/06 01:26:53;;;;;;;14.35;7.28;;;8.70;99.90;;;;;;5008249;28;20108;-73
2022/04/06 01:29:19;;;;;;;17.00;7.40;;;8.70;99.90;;;;;;5005659;28;20433;-73
2022/04/06 01:31:44;;;;;;;15.30;7.28;;;8.60;99.90;;;;;;5003828;28;20034;-72
2022/04/06 01:34:10;;;;;;;14.82;7.65;;;8.70;99.90;;;;;;5006684;28;20048;-72
2022/04/06 01:36:36;;;;;;;13.85;7.25;;;8.70;99.90;;;;;;5005310;28;20361;-72
2022/04/06 01:39:01;;;;;;;14.38;7.13;;;8.70;99.90;;;;;;5009133;28;20543;-72
2022/04/06 01:41:31;;;;;;;13.98;7.60;;;8.70;99.90;;;;;;5005065;28;20064;-72
2022/04/06 01:43:57;;;;;;;13.43;7.03;;;8.70;99.90;;;;;;5008515;28;20064;-73
2022/04/06 01:46:23;;;;;;;14.50;6.68;;;8.70;99.90;;;;;;5000373;28;20062;-72
2022/04/06 01:54:20;;;;;;;15.98;8.15;;;8.70;99.90;;;;;;5008373;28;20164;-73
2022/04/06 01:56:45;;;;;;;13.30;7.15;;;8.70;99.90;;;;;;5007274;28;20084;-73
2022/04/06 01:59:11;;;;;;;13.13;6.93;;;8.70;99.90;;;;;;5009662;28;20053;-73
2022/04/06 02:01:37;;;;;;;14.73;7.80;;;8.70;99.90;;;;;;5001973;28;20038;-73
2022/04/06 02:04:06;;;;;;;14.23;7.30;;;8.70;99.90;;;;;;5008396;28;20062;-72
2022/04/06 02:06:33;;;;;;;15.80;7.35;;;8.70;99.90;;;;;;4999844;28;20105;-72
2022/04/06 02:09:04;;;;;;;16.77;7.47;;;8.70;99.90;;;;;;5007259;28;20066;-72
2022/04/06 02:11:30;;;;;;;13.32;7.20;;;8.70;99.90;;;;;;5008596;28;20072;-72
2022/04/06 02:13:57;;;;;;;12.48;6.90;;;8.70;99.90;;;;;;5014360;28;20035;-72
2022/04/06 02:16:23;;;;;;;15.43;8.23;;;8.60;99.90;;;;;;4999338;28;20061;-71
2022/04/06 02:18:49;;;;;;;13.25;6.72;;;8.60;99.90;;;;;;5011012;28;20033;-71
2022/04/06 02:21:15;;;;;;;13.00;7.10;;;8.60;99.90;;;;;;5010040;28;20561;-72
2022/04/06 02:23:40;;;;;;;13.25;6.82;;;8.60;99.90;;;;;;5006435;28;20030;-72
2022/04/06 02:26:06;;;;;;;14.20;7.88;;;8.60;99.90;;;;;;5010403;28;20038;-72
2022/04/06 02:28:32;;;;;;;15.85;7.45;;;8.70;99.90;;;;;;5007338;28;20461;-73
2022/04/06 02:30:58;;;;;;;12.65;6.70;;;8.60;99.90;;;;;;5004861;28;20030;-73
2022/04/06 02:33:23;;;;;;;13.10;6.97;;;8.60;99.90;;;;;;5012280;28;20091;-73
2022/04/06 02:35:49;;;;;;;12.98;6.93;;;8.60;99.90;;;;;;5015147;28;20635;-73
2022/04/06 02:38:15;;;;;;;13.57;7.70;;;8.70;99.90;;;;;;5013278;28;20026;-72
2022/04/06 02:40:40;;;;;;;16.25;7.72;;;8.70;99.90;;;;;;5010129;28;20469;-71
2022/04/06 02:43:06;;;;;;;13.30;6.75;;;8.70;99.90;;;;;;5009988;28;20529;-72
2022/04/06 02:45:31;;;;;;;15.38;7.22;;;8.70;99.90;;;;;;5010520;28;20061;-72
2022/04/06 02:47:57;;;;;;;13.30;6.80;;;8.70;99.90;;;;;;5012663;28;20199;-73
2022/04/06 02:50:23;;;;;;;12.95;6.93;;;8.70;99.90;;;;;;5012010;28;20056;-73
2022/04/06 02:52:48;;;;;;;14.38;6.95;;;8.70;99.90;;;;;;5013452;28;20403;-73
2022/04/06 02:55:14;;;;;;;15.82;7.43;;;8.70;99.90;;;;;;5009339;28;20037;-72
2022/04/06 02:57:41;;;;;;;14.32;6.95;;;8.70;99.90;;;;;;5016130;28;20045;-71
2022/04/06 03:00:08;;;;;;;14.25;7.93;;;8.60;99.90;;;;;;5009343;28;20018;-73
2022/04/06 03:02:34;;;;;;;15.82;7.57;;;8.70;99.90;;;;;;5009033;28;20034;-72
2022/04/06 03:04:59;;;;;;;16.50;6.88;;;8.70;99.90;;;;;;5003175;28;20842;-72
2022/04/06 03:07:25;;;;;;;14.63;7.80;;;8.60;99.90;;;;;;5010518;28;20037;-72
2022/04/06 03:09:50;;;;;;;12.40;6.72;;;8.70;99.90;;;;;;5011048;28;20025;-72
2022/04/06 03:12:16;;;;;;;13.57;6.65;;;8.60;99.90;;;;;;5014791;28;20108;-72
2022/04/06 03:14:42;;;;;;;15.88;7.32;;;8.70;99.90;;;;;;5012847;28;20033;-72
2022/04/06 03:17:08;;;;;;;14.98;7.38;;;8.70;99.90;;;;;;5013760;28;20045;-72
2022/04/06 03:19:33;;;;;;;16.10;7.68;;;8.70;99.90;;;;;;5016688;28;20034;-72
2022/04/06 03:21:59;;;;;;;16.50;7.22;;;8.70;99.90;;;;;;5011491;28;20026;-72
2022/04/06 03:24:26;;;;;;;16.33;7.63;;;8.70;99.90;;;;;;5009689;28;20257;-73
2022/04/06 03:26:53;;;;;;;15.55;7.13;;;8.70;99.90;;;;;;5005812;28;20029;-73
2022/04/06 03:29:19;;;;;;;14.05;7.05;;;8.70;99.90;;;;;;5008513;28;20583;-73
2022/04/06 03:31:45;;;;;;;16.52;7.80;;;8.70;99.90;;;;;;5010888;28;20037;-73
2022/04/06 03:34:10;;;;;;;14.57;7.68;;;8.70;99.90;;;;;;5007068;28;20109;-73
2022/04/06 03:36:36;;;;;;;15.20;7.47;;;8.70;99.90;;;;;;5008192;28;20168;-73
2022/04/06 03:39:02;;;;;;;16.08;8.32;;;8.70;99.90;;;;;;5007308;28;20126;-73
2022/04/06 03:41:27;;;;;;;14.80;7.32;;;8.70;99.90;;;;;;5012153;28;20148;-73
2022/04/06 03:43:53;;;;;;;13.50;6.97;;;8.70;99.90;;;;;;5003159;28;20088;-73
2022/04/06 03:46:19;;;;;;;13.82;7.82;;;8.70;99.90;;;;;;5006068;28;20087;-73
2022/04/06 03:48:44;;;;;;;15.10;7.03;;;8.70;99.90;;;;;;5009699;28;20477;-73
2022/04/06 03:51:10;;;;;;;15.02;7.55;;;8.70;99.90;;;;;;5005559;28;20026;-72
2022/04/06 03:53:36;;;;;;;16.60;8.13;;;8.70;99.90;;;;;;5009275;28;20030;-72
2022/04/06 03:56:01;;;;;;;18.65;7.65;;;8.70;99.90;;;;;;5007728;28;20034;-72
2022/04/06 03:58:28;;;;;;;16.58;7.53;;;8.70;99.90;;;;;;5003784;28;20037;-76
2022/04/06 04:00:54;;;;;;;13.15;7.13;;;8.70;99.90;;;;;;5008834;28;20033;-75
2022/04/06 04:03:20;;;;;;;19.30;7.82;;;8.60;99.90;;;;;;5009691;28;20042;-73
2022/04/06 04:05:46;;;;;;;14.68;7.70;;;8.70;99.90;;;;;;5008685;28;20058;-76
2022/04/06 04:08:11;;;;;;;17.25;7.88;;;8.60;99.90;;;;;;5008431;28;20030;-79
2022/04/06 04:10:37;;;;;;;16.73;8.23;;;8.60;99.90;;;;;;5011252;28;20036;-77
2022/04/06 04:13:03;;;;;;;15.05;8.05;;;8.60;99.90;;;;;;5001019;28;20234;-74
2022/04/06 04:15:29;;;;;;;17.77;7.80;;;8.60;99.90;;;;;;5007049;28;20041;-74
2022/04/06 04:17:55;;;;;;;15.93;8.00;;;8.50;99.90;;;;;;5005342;28;20034;-73
2022/04/06 04:20:21;;;;;;;16.80;8.45;;;8.60;99.90;;;;;;5007569;28;20034;-74
2022/04/06 04:22:47;;;;;;;13.95;7.47;;;8.60;99.90;;;;;;5008476;28;20057;-76
2022/04/06 04:25:13;;;;;;;16.88;8.15;;;8.60;99.90;;;;;;5008689;28;20034;-73
2022/04/06 04:27:39;;;;;;;16.90;8.77;;;8.60;99.90;;;;;;5009805;28;20103;-75
2022/04/06 04:30:06;;;;;;;16.98;8.23;;;8.60;99.90;;;;;;5013046;28;20460;-74
2022/04/06 04:32:32;;;;;;;16.02;8.23;;;8.70;99.90;;;;;;5009346;28;20057;-76
2022/04/06 04:34:59;;;;;;;17.90;7.88;;;8.60;99.90;;;;;;5005012;28;20072;-71
2022/04/06 04:37:25;;;;;;;16.13;8.30;;;8.70;99.90;;;;;;5007477;28;20084;-72
2022/04/06 04:39:50;;;;;;;15.75;7.82;;;8.70;99.90;;;;;;5006646;28;20092;-73
2022/04/06 04:42:16;;;;;;;17.15;8.07;;;8.60;99.90;;;;;;5007724;28;20392;-74
2022/04/06 04:44:42;;;;;;;14.82;7.43;;;8.60;99.90;;;;;;5007904;28;20461;-71
2022/04/06 04:47:07;;;;;;;15.90;7.80;;;8.70;99.90;;;;;;5006295;28;20478;-76
2022/04/06 04:49:33;;;;;;;16.63;8.10;;;8.70;99.90;;;;;;5002351;28;20034;-75
2022/04/06 04:51:59;;;;;;;16.70;7.97;;;8.70;99.90;;;;;;5003975;28;20026;-75
2022/04/06 04:54:24;;;;;;;17.65;8.98;;;8.70;99.90;;;;;;5008080;28;20623;-79
2022/04/06 04:56:52;;;;;;;16.42;8.40;;;8.70;99.90;;;;;;5003514;28;20084;-78
2022/04/06 04:59:18;;;;;;;16.45;8.65;;;8.70;99.90;;;;;;5013975;28;20026;-72
2022/04/06 05:01:44;;;;;;;17.73;8.60;;;8.70;99.90;;;;;;5004761;28;20033;-70
2022/04/06 05:04:10;;;;;;;17.15;8.50;;;8.70;99.90;;;;;;5007501;28;20096;-77
2022/04/06 05:06:38;;;;;;;17.35;9.23;;;8.60;99.90;;;;;;5008935;28;20120;-79
2022/04/06 05:09:04;;;;;;;17.35;8.45;;;8.60;99.90;;;;;;5012769;28;20635;-78
2022/04/06 05:11:30;;;;;;;15.15;7.97;;;8.70;99.90;;;;;;5004740;28;20030;-77
2022/04/06 05:13:55;;;;;;;17.58;8.30;;;8.60;99.90;;;;;;5004174;28;20065;-79
2022/04/06 05:16:21;;;;;;;16.58;8.30;;;8.70;99.90;;;;;;5005645;28;20054;-77
2022/04/06 05:18:47;;;;;;;14.70;7.82;;;8.60;99.90;;;;;;5004940;28;20045;-72
2022/04/06 05:21:12;;;;;;;15.25;8.20;;;8.70;99.90;;;;;;5003484;28;20096;-71
2022/04/06 05:23:38;;;;;;;14.55;8.20;;;8.70;99.90;;;;;;5005354;28;20025;-74
2022/04/06 05:26:04;;;;;;;14.50;7.70;;;8.70;99.90;;;;;;5002752;28;20026;-71
2022/04/06 05:28:29;;;;;;;15.10;7.78;;;8.70;99.90;;;;;;5015012;28;20150;-73
2022/04/06 05:30:55;;;;;;;14.02;7.70;;;8.70;99.90;;;;;;5008016;28;20041;-72
2022/04/06 05:33:21;;;;;;;16.13;7.63;;;8.70;99.90;;;;;;5009050;28;20508;-75
2022/04/06 05:35:47;;;;;;;15.43;7.95;;;8.80;99.90;;;;;;5008028;28;20042;-70
2022/04/06 05:38:12;;;;;;;14.95;8.02;;;8.80;99.90;;;;;;5007051;28;20489;-74
2022/04/06 05:40:38;;;;;;;15.32;7.72;;;8.80;99.90;;;;;;5013550;28;20477;-74
2022/04/06 05:43:04;;;;;;;15.45;8.50;;;8.80;99.90;;;;;;5006873;28;20042;-74
2022/04/06 05:45:30;;;;;;;15.30;8.40;;;8.80;99.90;;;;;;5003179;28;20092;-74
2022/04/06 05:47:56;;;;;;;12.98;7.38;;;8.80;99.90;;;;;;5008555;28;20463;-73
2022/04/06 05:50:22;;;;;;;15.13;7.45;;;8.80;99.90;;;;;;5007014;28;20042;-72
2022/04/06 05:52:48;;;;;;;15.15;7.78;;;8.80;99.90;;;;;;5007791;28;20038;-68
2022/04/06 05:55:15;;;;;;;12.73;6.85;;;8.90;99.90;;;;;;5004278;28;20728;-72
2022/04/06 05:57:41;;;;;;;16.88;7.85;;;8.80;99.90;;;;;;5003805;28;20045;-73
2022/04/06 06:00:08;;;;;;;14.43;7.35;;;8.80;99.90;;;;;;5006084;28;20658;-74
2022/04/06 06:02:34;;;;;;;15.45;7.75;;;8.90;99.90;;;;;;5006192;28;20076;-72
2022/04/06 06:05:00;;;;;;;15.98;7.82;;;8.90;99.90;;;;;;5010771;28;20057;-75
2022/04/06 06:07:26;;;;;;;18.42;8.05;;;8.90;99.90;;;;;;5009037;28;20076;-73
2022/04/06 06:09:52;;;;;;;14.68;8.20;;;8.80;99.90;;;;;;5007329;28;20472;-74
2022/04/06 06:12:18;;;;;;;20.75;8.23;;;8.90;99.90;;;;;;5016628;28;20070;-74
2022/04/06 06:14:44;;;;;;;13.77;7.60;;;8.90;99.90;;;;;;5007501;28;20050;-74
2022/04/06 06:17:10;;;;;;;17.63;8.38;;;8.90;99.90;;;;;;5011689;28;20075;-75
2022/04/06 06:19:35;;;;;;;15.82;8.27;;;8.90;99.90;;;;;;5009943;28;20080;-72
2022/04/06 06:22:01;;;;;;;16.13;8.57;;;8.90;99.90;;;;;;5011674;28;20087;-75
2022/04/06 06:24:28;;;;;;;15.57;8.00;;;8.90;99.90;;;;;;5012714;28;20040;-73
2022/04/06 06:26:54;;;;;;;17.20;8.38;;;8.90;99.90;;;;;;5009986;28;20083;-74
2022/04/06 06:29:20;;;;;;;16.27;8.10;;;9.00;99.90;;;;;;5010814;28;20049;-73
2022/04/06 06:31:47;;;;;;;15.13;8.00;;;9.00;99.90;;;;;;5007975;28;20026;-73
2022/04/06 06:34:13;;;;;;;16.88;8.00;;;9.00;99.90;;;;;;5008636;28;20029;-72
2022/04/06 06:36:38;;;;;;;17.42;7.60;;;9.00;99.90;;;;;;5004353;28;20060;-69
2022/04/06 06:39:04;;;;;;;17.25;7.95;;;9.10;99.90;;;;;;5007823;28;20091;-70
2022/04/06 06:41:30;;;;;;;17.08;8.60;;;9.10;99.90;;;;;;5010475;28;20540;-71
2022/04/06 06:43:56;;;;;;;14.75;8.00;;;9.10;99.90;;;;;;5014856;28;20026;-71
2022/04/06 06:46:22;;;;;;;15.98;7.70;;;9.10;99.90;;;;;;5003254;28;20034;-74
2022/04/06 06:48:49;;;;;;;16.33;7.85;;;9.10;99.90;;;;;;5011783;28;20121;-75
2022/04/06 06:51:16;;;;;;;16.70;7.85;;;9.10;99.90;;;;;;5006263;28;20120;-70
2022/04/06 06:53:42;;;;;;;14.32;7.15;;;9.10;99.90;;;;;;5010405;28;20518;-72
2022/04/06 06:56:08;;;;;;;16.92;8.40;;;9.20;99.90;;;;;;5006485;28;20037;-71
2022/04/06 06:58:35;;;;;;;14.77;7.72;;;9.20;99.90;;;;;;5011863;28;20033;-72
2022/04/06 07:01:01;;;;;;;14.15;7.72;;;9.20;99.90;;;;;;5006450;28;20543;-73
2022/04/06 07:03:27;;;;;;;31.63;8.95;;;9.20;99.90;;;;;;5003744;28;20465;-72
2022/04/06 07:05:53;;;;;;;15.02;7.47;;;9.30;99.90;;;;;;5009626;28;20065;-71
2022/04/06 07:08:19;;;;;;;14.55;7.32;;;9.30;99.90;;;;;;5017161;28;20034;-73
2022/04/06 07:10:45;;;;;;;13.73;6.88;;;9.30;99.90;;;;;;5016627;28;20029;-73
2022/04/06 07:13:12;;;;;;;18.25;6.97;;;9.30;99.90;;;;;;5008308;28;20032;-73
2022/04/06 07:15:39;;;;;;;14.13;6.95;;;9.30;99.90;;;;;;5008482;28;20038;-74
2022/04/06 07:18:07;;;;;;;13.68;6.93;;;9.30;99.90;;;;;;5011768;28;20152;-73
2022/04/06 07:20:35;;;;;;;13.48;7.05;;;9.40;99.90;;;;;;5010219;28;20105;-72
2022/04/06 07:23:05;;;;;;;14.75;6.28;;;9.40;99.90;;;;;;5006286;28;20084;-72
2022/04/06 07:25:31;;;;;;;13.00;6.78;;;9.40;99.90;;;;;;5010816;28;20045;-73
2022/04/06 07:27:57;;;;;;;12.55;6.35;;;9.50;99.90;;;;;;5014406;28;20058;-73
2022/04/06 07:30:23;;;;;;;10.80;6.53;;;9.50;99.90;;;;;;5018454;28;20053;-73
2022/04/06 07:32:48;;;;;;;12.25;6.45;;;9.50;99.90;;;;;;5009517;28;20480;-72
2022/04/06 07:35:16;;;;;;;14.85;6.63;;;9.60;99.90;;;;;;5012378;28;20029;-72
2022/04/06 07:37:49;;;;;;;13.65;6.50;;;9.70;99.90;;;;;;5009097;28;20117;-73
2022/04/06 07:40:18;;;;;;;11.02;6.18;;;9.70;99.90;;;;;;5008157;28;20075;-74
2022/04/06 07:42:44;;;;;;;12.65;5.40;;;9.70;99.90;;;;;;5007630;28;20041;-71
2022/04/06 07:45:19;;;;;;;11.27;5.50;;;9.80;99.90;;;;;;5007206;28;20030;-72
2022/04/06 07:47:49;;;;;;;9.80;5.00;;;9.80;99.90;;;;;;5001350;28;20111;-70
2022/04/06 07:50:16;;;;;;;11.45;5.00;;;9.80;99.90;;;;;;5007146;28;20638;-72
2022/04/06 07:52:43;;;;;;;8.77;5.07;;;9.90;99.90;;;;;;5005249;28;20027;-73
2022/04/06 07:55:10;;;;;;;7.97;4.43;;;10.00;99.90;;;;;;5006404;28;20484;-73
2022/04/06 07:57:37;;;;;;;8.38;4.22;;;10.00;99.90;;;;;;5009507;28;20034;-73
2022/04/06 08:00:17;;;;;;;9.85;4.55;;;10.00;99.90;;;;;;5009994;28;20140;-72
2022/04/06 08:02:45;;;;;;;7.10;3.95;;;10.10;99.90;;;;;;5001258;28;20052;-75
2022/04/06 08:05:11;;;;;;;8.27;3.90;;;10.10;99.90;;;;;;5006766;28;20049;-75
2022/04/06 08:07:39;;;;;;;6.82;3.95;;;10.20;99.90;;;;;;5010570;28;20052;-73
2022/04/06 08:10:09;;;;;;;6.45;3.35;;;10.20;99.90;;;;;;5008622;28;20037;-73
2022/04/06 08:12:36;;;;;;;7.57;3.30;;;10.30;99.90;;;;;;5010205;28;20048;-72
2022/04/06 08:15:03;;;;;;;6.32;2.97;;;10.30;99.90;;;;;;5007529;28;20048;-72
2022/04/06 08:17:35;;;;;;;5.00;2.83;;;10.40;99.90;;;;;;5000836;28;20034;-69
2022/04/06 08:20:04;;;;;;;5.95;2.65;;;10.50;99.90;;;;;;5009417;28;20388;-73
2022/04/06 08:22:30;;;;;;;5.82;2.30;;;10.50;99.90;;;;;;5009156;28;20038;-72
2022/04/06 08:24:56;;;;;;;4.25;2.17;;;10.60;99.90;;;;;;5008376;28;20027;-70
2022/04/06 08:27:22;;;;;;;5.18;2.15;;;10.70;99.90;;;;;;5008879;28;20105;-73
2022/04/06 08:29:47;;;;;;;2.95;1.90;;;10.70;99.90;;;;;;5010663;28;20129;-72
2022/04/06 08:32:14;;;;;;;4.43;2.00;;;10.90;99.90;;;;;;5007854;28;20101;-72
2022/04/06 08:34:40;;;;;;;5.22;2.08;;;10.90;99.90;;;;;;5007890;28;20042;-73
2022/04/06 08:37:08;;;;;;;5.03;1.98;;;10.90;99.90;;;;;;5006371;28;20103;-72
2022/04/06 08:39:33;;;;;;;3.05;1.80;;;10.90;99.90;;;;;;5007470;28;20128;-73
2022/04/06 08:42:00;;;;;;;2.60;1.75;;;10.90;99.90;;;;;;5002020;28;20030;-71
2022/04/06 08:44:26;;;;;;;4.15;1.63;;;10.90;99.90;;;;;;5008596;28;20496;-74
2022/04/06 08:46:52;;;;;;;3.97;1.92;;;10.80;99.90;;;;;;5009512;28;20080;-72
2022/04/06 08:49:22;;;;;;;2.58;1.48;;;10.90;99.90;;;;;;5008286;28;20018;-72
2022/04/06 08:51:48;;;;;;;4.82;1.88;;;10.90;99.90;;;;;;5009569;28;20037;-73
2022/04/06 08:54:14;;;;;;;3.95;2.00;;;10.80;99.90;;;;;;5008997;28;20040;-71
2022/04/06 08:56:40;;;;;;;2.67;1.80;;;10.80;99.90;;;;;;5008372;28;20407;-73
2022/04/06 08:59:06;;;;;;;5.07;2.17;;;10.90;99.90;;;;;;5009324;28;20030;-71
2022/04/06 09:01:33;;;;;;;4.97;2.63;;;11.00;99.90;;;;;;5010903;28;20030;-70
2022/04/06 09:04:06;;;;;;;4.07;2.05;;;11.10;99.90;;;;;;5120166;27;20108;-71
2022/04/06 09:06:43;;;;;;;3.85;2.00;;;11.20;99.90;;;;;;5095472;28;20032;-72
2022/04/06 09:09:09;;;;;;;4.72;2.40;;;11.40;99.90;;;;;;5093823;28;20102;-74
2022/04/06 09:11:45;;;;;;;8.18;2.40;;;11.40;99.90;;;;;;5101656;28;20024;-74
2022/04/06 09:14:12;;;;;;;5.63;2.55;;;11.20;99.90;;;;;;5087582;28;20107;-70
2022/04/06 09:16:38;;;;;;;5.50;2.80;;;11.20;99.90;;;;;;5096459;28;20047;-72
2022/04/06 09:19:11;;;;;;;4.13;2.70;;;11.30;99.90;;;;;;5093100;28;20473;-71
2022/04/06 09:21:46;;;;;;;3.72;2.03;;;11.40;99.90;;;;;;5101921;28;20032;-72
2022/04/06 09:24:20;;;;;;;4.53;2.30;;;11.70;99.90;;;;;;5100209;28;20066;-72
2022/04/06 09:27:02;;;;;;;4.93;2.88;;;11.90;99.90;;;;;;5095186;28;20071;-73
2022/04/06 09:29:29;;;;;;;5.13;2.40;;;12.00;99.90;;;;;;5071339;28;20503;-72
2022/04/06 09:31:55;;;;;;;3.97;2.58;;;12.00;99.90;;;;;;5095826;28;20044;-73
2022/04/06 09:34:27;;;;;;;5.90;2.88;;;11.90;99.90;;;;;;5099171;28;20492;-71
2022/04/06 09:36:56;;;;;;;4.30;2.20;;;11.80;99.90;;;;;;5101169;28;20103;-71
2022/04/06 09:39:46;;;;;;;3.28;2.00;;;11.90;99.90;;;;;;5096110;28;20077;-71
2022/04/06 09:42:20;;;;;;;3.73;1.90;;;12.10;99.90;;;;;;5098981;28;20028;-71
2022/04/06 09:47:58;;;;;;;4.25;2.20;;;12.40;99.90;;;;;;5004735;28;20121;-74
2022/04/06 09:50:29;;;;;;;3.20;1.77;;;12.50;99.90;;;;;;5102735;28;20476;-73
2022/04/06 09:52:57;;;;;;;3.42;1.98;;;12.40;99.90;;;;;;5101529;28;20046;-75
2022/04/06 09:55:23;;;;;;;3.63;1.73;;;12.50;99.90;;;;;;5095753;28;20028;-72
2022/04/06 09:57:55;;;;;;;9.80;2.38;;;12.40;99.90;;;;;;5095676;28;20024;-72
2022/04/06 10:00:29;;;;;;;2.92;1.70;;;12.50;99.90;;;;;;5089715;28;20480;-71
2022/04/06 10:03:08;;;;;;;3.33;1.65;;;12.40;99.90;;;;;;5085627;28;20194;-73
2022/04/06 10:05:38;;;;;;;2.53;1.40;;;12.30;99.90;;;;;;5072144;28;20035;-71
2022/04/06 10:08:08;;;;;;;2.65;1.60;;;12.10;99.90;;;;;;5072776;28;20106;-71
2022/04/06 10:10:40;;;;;;;2.08;1.48;;;12.30;99.90;;;;;;5076326;28;20645;-72
2022/04/06 10:13:07;;;;;;;1.83;1.40;;;12.40;99.90;;;;;;5077467;28;20481;-71
2022/04/06 10:15:36;;;;;;;2.65;1.40;;;12.50;99.90;;;;;;5064442;28;20031;-71
2022/04/06 10:18:03;;;;;;;2.00;1.20;;;12.70;99.90;;;;;;5058807;28;20029;-72
2022/04/06 10:20:48;;;;;;;4.13;1.27;;;12.70;99.90;;;;;;5055559;28;20100;-73
2022/04/06 10:23:28;;;;;;;2.97;1.38;;;12.50;99.90;;;;;;5059651;28;20422;-72
2022/04/06 10:26:22;;;;;;;4.63;1.50;;;12.40;99.90;;;;;;5063815;28;20059;-72
2022/04/06 10:28:49;;;;;;;1.88;1.30;;;12.50;99.90;;;;;;5056922;28;20183;-71
2022/04/06 10:31:22;;;;;;;3.08;1.40;;;12.40;99.90;;;;;;5064993;28;20062;-73
2022/04/06 10:33:50;;;;;;;2.20;1.00;;;12.40;99.90;;;;;;5064277;28;20064;-73
2022/04/06 10:36:17;;;;;;;1.85;1.23;;;12.50;99.90;;;;;;5066505;28;20110;-73
2022/04/06 10:39:05;;;;;;;8.50;1.92;;;12.70;99.90;;;;;;5068962;28;20694;-69
2022/04/06 10:41:32;;;;;;;1.92;1.20;;;13.70;99.90;;;;;;5068184;28;20098;-72
2022/04/06 10:43:57;;;;;;;4.75;1.35;;;13.40;99.90;;;;;;5060125;28;20033;-69
2022/04/06 10:46:40;;;;;;;2.22;1.35;;;13.60;99.90;;;;;;5065260;28;20044;-70
2022/04/06 10:49:06;;;;;;;2.03;1.25;;;13.10;99.90;;;;;;5064593;28;20119;-72
2022/04/06 10:51:34;;;;;;;1.98;1.15;;;12.70;99.90;;;;;;5053988;28;20448;-71
2022/04/06 10:54:20;;;;;;;3.08;1.42;;;12.40;99.90;;;;;;5063294;28;20032;-67
2022/04/06 10:56:54;;;;;;;2.65;1.58;;;12.50;99.90;;;;;;5043827;28;20040;-72
2022/04/06 10:59:20;;;;;;;3.33;1.33;;;12.60;99.90;;;;;;5058455;28;20030;-69
2022/04/06 11:01:48;;;;;;;2.58;1.50;;;12.60;99.90;;;;;;5062845;28;20060;-73
2022/04/06 11:04:24;;;;;;;3.03;1.55;;;12.80;99.90;;;;;;5063424;28;20039;-73
2022/04/06 11:06:56;;;;;;;2.88;1.40;;;12.70;99.90;;;;;;5058346;28;20039;-69
2022/04/06 11:12:19;;;;;;;2.63;1.60;;;12.60;99.90;;;;;;5055124;28;20105;-71
2022/04/06 11:14:47;;;;;;;3.47;1.52;;;12.60;99.90;;;;;;5061954;28;20534;-71
2022/04/06 11:17:34;;;;;;;3.00;1.70;;;12.70;99.90;;;;;;5066396;28;20039;-70
2022/04/06 11:20:03;;;;;;;2.97;1.63;;;12.90;99.90;;;;;;5061530;28;20481;-68
2022/04/06 11:22:29;;;;;;;2.17;1.42;;;12.90;99.90;;;;;;5058575;28;20062;-71
2022/04/06 11:24:56;;;;;;;2.78;1.40;;;12.80;99.90;;;;;;5068608;28;20048;-70
2022/04/06 11:27:35;;;;;;;4.13;2.00;;;12.80;99.90;;;;;;5057171;28;20036;-72
2022/04/06 11:30:27;;;;;;;3.58;1.40;;;12.90;99.90;;;;;;5048618;28;20021;-69
2022/04/06 11:32:58;;;;;;;3.45;1.40;;;13.00;99.90;;;;;;5052405;28;20053;-70
2022/04/06 11:35:28;;;;;;;1.80;1.20;;;13.20;99.90;;;;;;5056240;28;20569;-75
2022/04/06 11:37:54;;;;;;;1.40;1.00;;;13.30;99.90;;;;;;5059623;28;20052;-74
2022/04/06 11:40:25;;;;;;;1.73;1.08;;;13.90;99.90;;;;;;5062673;28;20036;-70
2022/04/06 11:42:51;;;;;;;;;;;14.10;99.90;;;;;;5062876;28;20039;-70
2022/04/06 11:45:28;;;;;;;0.90;0.63;;;13.80;99.90;;;;;;5064903;28;20010;-72
2022/04/06 11:47:59;;;;;;;1.52;0.80;;;13.50;99.90;;;;;;5057412;28;20036;-71
2022/04/06 11:50:30;;;;;;;4.30;1.08;;;13.40;99.90;;;;;;5067841;28;20063;-71
2022/04/06 11:52:59;;;;;;;;;;;13.50;99.90;;;;;;5066619;28;20032;-71
2022/04/06 11:55:41;;;;;;;1.45;0.70;;;13.70;99.90;;;;;;5064635;28;19913;-71
2022/04/06 11:58:06;;;;;;;1.45;0.80;;;13.60;99.90;;;;;;5061942;28;20466;-70
2022/04/06 12:00:34;;;;;;;2.55;1.05;;;13.60;99.90;;;;;;5065233;28;20035;-72
2022/04/06 12:03:02;;;;;;;1.85;0.93;;;13.70;99.90;;;;;;5058126;28;20117;-70
2022/04/06 12:05:28;;;;;;;1.85;0.80;;;14.40;99.90;;;;;;5058222;28;20025;-72
2022/04/06 12:08:07;;;;;;;1.35;0.85;;;14.60;99.90;;;;;;5065748;28;20029;-72
2022/04/06 12:10:33;;;;;;;1.40;0.50;;;14.70;99.90;;;;;;5060751;28;20035;-74
2022/04/06 12:12:59;;;;;;;1.70;0.85;;;14.70;99.90;;;;;;5053542;28;20111;-70
2022/04/06 12:15:25;;;;;;;1.15;0.70;;;14.70;99.90;;;;;;5063421;28;20135;-72
2022/04/06 12:17:51;;;;;;;2.25;0.60;;;14.50;99.90;;;;;;5057554;28;20423;-71
2022/04/06 12:20:24;;;;;;;2.63;1.05;;;14.70;99.90;;;;;;5056262;28;20021;-71
2022/04/06 12:23:03;;;;;;;0.75;0.50;;;14.90;99.90;;;;;;5056881;28;20519;-71
2022/04/06 12:25:33;;;;;;;0.93;0.63;;;15.40;99.90;;;;;;5060757;28;20477;-72
2022/04/06 12:28:29;;;;;;;2.25;0.75;;;15.20;99.90;;;;;;5053816;28;20036;-67
2022/04/06 12:31:02;;;;;;;1.92;0.80;;;14.70;99.90;;;;;;5039162;28;20040;-73
2022/04/06 12:33:37;;;;;;;1.55;0.60;;;14.40;99.90;;;;;;5060757;28;20151;-75
2022/04/06 12:36:12;;;;;;;1.13;0.55;;;14.20;99.90;;;;;;5050597;28;20158;-69
2022/04/06 12:38:40;;;;;;;0.60;0.50;;;14.20;99.90;;;;;;5063710;28;20039;-71
2022/04/06 12:41:11;;;;;;;2.03;0.60;;;14.50;99.90;;;;;;5066396;28;20044;-72
2022/04/06 12:43:44;;;;;;;0.60;0.50;;;15.20;99.90;;;;;;5060818;28;20424;-79
2022/04/06 12:46:10;;;;;;;1.30;0.50;;;15.90;99.90;;;;;;5065429;28;20037;-75
2022/04/06 12:48:36;;;;;;;1.80;0.50;;;15.70;99.90;;;;;;5066237;28;20032;-73
2022/04/06 12:51:21;;;;;;;3.58;0.70;;;15.60;99.90;;;;;;5063555;28;20099;-69
2022/04/06 12:53:51;;;;;;;0.93;0.40;;;15.00;99.90;;;;;;5061592;28;20031;-76
2022/04/06 12:56:22;;;;;;;3.63;0.50;;;14.80;99.90;;;;;;5061909;28;20029;-72
2022/04/06 12:59:07;;;;;;;1.13;0.50;;;15.00;99.90;;;;;;5062423;28;20043;-72
2022/04/06 13:01:32;;;;;;;0.82;0.50;;;15.40;99.90;;;;;;5058477;28;20094;-72
2022/04/06 13:03:58;;;;;;;0.77;0.60;;;15.30;99.90;;;;;;5065190;28;20056;-74